Seaboard Ranger — A8RF7 — position and weather

sailwx.info

Track history (hours):
 
Tides and Currents Weather Stations Pressure Air Temp Water Temp Dewpoint Dewpoint Depression Visibility Wind Speed Wind Dir Waves Ship Positions

Seaboard Ranger

Last reported at 2018-Jul-16 01:49 UTC. Time now 2018-Jul-19 17:18 UTC.
Position N 25°28' W 079°38'.

Length 148 m; draft 8.1 m.

Type: Cargo ship. MMSI: 636091654.

Date/timePositionNaut miles runAvg speedWind from/ knotsBaromVisibWave heightAir tempDewpointWater temp
2018-Jul-16 01:49N 25°28' W 079°38'414.3
2018-Jul-16 01:30N 25°32' W 079°39'714.0
2018-Jul-16 01:00N 25°39' W 079°41'612.2
2018-Jul-16 00:30N 25°45' W 079°43'815.8
2018-Jul-16 00:00N 25°45' W 079°52'816.1
2018-Jul-15 23:30N 25°46' W 080°01'611.7
2018-Jul-15 23:00N 25°46' W 080°08'2 4.6
2018-Jul-15 22:30N 25°46' W 080°10'0 0.0
2018-Jul-15 21:58N 25°46' W 080°10'0 0.0
2018-Jul-15 21:31N 25°46' W 080°10'0 0.0
2018-Jul-15 21:00N 25°46' W 080°10'0 0.0
2018-Jul-15 20:27N 25°46' W 080°10'0 0.0
2018-Jul-15 19:57N 25°46' W 080°10'0 0.0
2018-Jul-15 19:30N 25°46' W 080°10'0 0.0
2018-Jul-15 18:59N 25°46' W 080°10'0 0.0
2018-Jul-15 18:29N 25°46' W 080°10'0 0.0
2018-Jul-15 17:59N 25°46' W 080°10'0 0.0
2018-Jul-15 17:29N 25°46' W 080°10'0 0.0
2018-Jul-15 16:59N 25°46' W 080°10'0 0.0
2018-Jul-15 16:28N 25°46' W 080°10'0 0.0
2018-Jul-15 15:58N 25°46' W 080°10'0 0.0
2018-Jul-15 15:28N 25°46' W 080°10'0 0.0
2018-Jul-15 14:58N 25°46' W 080°10'0 0.0
2018-Jul-15 14:30N 25°46' W 080°10'0 0.0
2018-Jul-15 14:00N 25°46' W 080°10'0 0.0
2018-Jul-15 13:30N 25°46' W 080°10'0 0.0
2018-Jul-15 13:00N 25°46' W 080°10'0 0.0
2018-Jul-15 12:30N 25°46' W 080°10'0 0.0
2018-Jul-15 11:59N 25°46' W 080°10'0 0.0
2018-Jul-15 11:26N 25°46' W 080°10'1 1.2
2018-Jul-15 11:00N 25°46' W 080°10'5 9.9
2018-Jul-15 10:30N 25°46' W 080°04'5 9.9
2018-Jul-15 10:00N 25°43' W 079°60'612.8
2018-Jul-15 09:30N 25°37' W 079°58'815.4
2018-Jul-15 09:00N 25°29' W 079°55'8115.2
2018-Jul-15 03:40N 24°13' W 079°26'  
2018-Jul-09 01:44N 25°30' W 079°38'314.6
2018-Jul-09 01:30N 25°33' W 079°39'714.4
2018-Jul-09 01:00N 25°40' W 079°41'612.4
2018-Jul-09 00:30N 25°45' W 079°45'816.3
2018-Jul-09 00:00N 25°45' W 079°54'816.1
2018-Jul-08 23:30N 25°46' W 080°03'510.2
2018-Jul-08 23:00N 25°46' W 080°09'1 2.1
2018-Jul-08 22:29N 25°46' W 080°10'0 0.0
2018-Jul-08 21:58N 25°46' W 080°10'0 0.0
2018-Jul-08 21:28N 25°46' W 080°10'0 0.0
2018-Jul-08 20:52N 25°46' W 080°10'0 0.0
2018-Jul-08 20:28N 25°46' W 080°10'0 0.0
2018-Jul-08 20:00N 25°46' W 080°10'0 0.0
2018-Jul-08 19:24N 25°46' W 080°10'0 0.0
2018-Jul-08 19:00N 25°46' W 080°10'0 0.0
2018-Jul-08 18:30N 25°46' W 080°10'0 0.0
2018-Jul-08 18:00N 25°46' W 080°10'0 0.0
2018-Jul-08 17:23N 25°46' W 080°10'0 0.0
2018-Jul-08 16:59N 25°46' W 080°10'0 0.0
2018-Jul-08 16:29N 25°46' W 080°10'0 0.0
2018-Jul-08 15:59N 25°46' W 080°10'0 0.0
2018-Jul-08 15:29N 25°46' W 080°10'0 0.0
2018-Jul-08 14:58N 25°46' W 080°10'0 0.0
2018-Jul-08 14:22N 25°46' W 080°10'0 0.0
2018-Jul-08 13:58N 25°46' W 080°10'0 0.0
2018-Jul-08 13:28N 25°46' W 080°10'0 0.0
2018-Jul-08 12:57N 25°46' W 080°10'0 0.0
2018-Jul-08 12:30N 25°46' W 080°10'0 0.0
2018-Jul-08 12:01N 25°46' W 080°10'1 1.6
2018-Jul-08 11:30N 25°46' W 080°09'4 8.9
2018-Jul-08 11:01N 25°46' W 080°04'3 6.3
2018-Jul-08 10:30N 25°45' W 080°01'815.0
2018-Jul-08 10:00N 25°38' W 079°58'815.9
2018-Jul-08 09:30N 25°30' W 079°56'  
Track history (hours):
 
Tides and Currents Weather Stations Pressure Air Temp Water Temp Dewpoint Dewpoint Depression Visibility Wind Speed Wind Dir Waves Ship Positions

Seaboard Ranger

Last reported at 2018-Jul-16 01:49 UTC. Time now 2018-Jul-19 17:18 UTC.
Position N 25°28' W 079°38'.

Length 148 m; draft 8.1 m.

Type: Cargo ship. MMSI: 636091654.

Date/timePositionNaut miles runAvg speedWind from/ knotsBaromVisibWave heightAir tempDewpointWater temp
2018-Jul-16 01:49N 25°28' W 079°38'414.3
2018-Jul-16 01:30N 25°32' W 079°39'714.0
2018-Jul-16 01:00N 25°39' W 079°41'612.2
2018-Jul-16 00:30N 25°45' W 079°43'815.8
2018-Jul-16 00:00N 25°45' W 079°52'816.1
2018-Jul-15 23:30N 25°46' W 080°01'611.7
2018-Jul-15 23:00N 25°46' W 080°08'2 4.6
2018-Jul-15 22:30N 25°46' W 080°10'0 0.0
2018-Jul-15 21:58N 25°46' W 080°10'0 0.0
2018-Jul-15 21:31N 25°46' W 080°10'0 0.0
2018-Jul-15 21:00N 25°46' W 080°10'0 0.0
2018-Jul-15 20:27N 25°46' W 080°10'0 0.0
2018-Jul-15 19:57N 25°46' W 080°10'0 0.0
2018-Jul-15 19:30N 25°46' W 080°10'0 0.0
2018-Jul-15 18:59N 25°46' W 080°10'0 0.0
2018-Jul-15 18:29N 25°46' W 080°10'0 0.0
2018-Jul-15 17:59N 25°46' W 080°10'0 0.0
2018-Jul-15 17:29N 25°46' W 080°10'0 0.0
2018-Jul-15 16:59N 25°46' W 080°10'0 0.0
2018-Jul-15 16:28N 25°46' W 080°10'0 0.0
2018-Jul-15 15:58N 25°46' W 080°10'0 0.0
2018-Jul-15 15:28N 25°46' W 080°10'0 0.0
2018-Jul-15 14:58N 25°46' W 080°10'0 0.0
2018-Jul-15 14:30N 25°46' W 080°10'0 0.0
2018-Jul-15 14:00N 25°46' W 080°10'0 0.0
2018-Jul-15 13:30N 25°46' W 080°10'0 0.0
2018-Jul-15 13:00N 25°46' W 080°10'0 0.0
2018-Jul-15 12:30N 25°46' W 080°10'0 0.0
2018-Jul-15 11:59N 25°46' W 080°10'0 0.0
2018-Jul-15 11:26N 25°46' W 080°10'1 1.2
2018-Jul-15 11:00N 25°46' W 080°10'5 9.9
2018-Jul-15 10:30N 25°46' W 080°04'5 9.9
2018-Jul-15 10:00N 25°43' W 079°60'612.8
2018-Jul-15 09:30N 25°37' W 079°58'815.4
2018-Jul-15 09:00N 25°29' W 079°55'8115.2
2018-Jul-15 03:40N 24°13' W 079°26'  
2018-Jul-09 01:44N 25°30' W 079°38'314.6
2018-Jul-09 01:30N 25°33' W 079°39'714.4
2018-Jul-09 01:00N 25°40' W 079°41'612.4
2018-Jul-09 00:30N 25°45' W 079°45'816.3
2018-Jul-09 00:00N 25°45' W 079°54'816.1
2018-Jul-08 23:30N 25°46' W 080°03'510.2
2018-Jul-08 23:00N 25°46' W 080°09'1 2.1
2018-Jul-08 22:29N 25°46' W 080°10'0 0.0
2018-Jul-08 21:58N 25°46' W 080°10'0 0.0
2018-Jul-08 21:28N 25°46' W 080°10'0 0.0
2018-Jul-08 20:52N 25°46' W 080°10'0 0.0
2018-Jul-08 20:28N 25°46' W 080°10'0 0.0
2018-Jul-08 20:00N 25°46' W 080°10'0 0.0
2018-Jul-08 19:24N 25°46' W 080°10'0 0.0
2018-Jul-08 19:00N 25°46' W 080°10'0 0.0
2018-Jul-08 18:30N 25°46' W 080°10'0 0.0
2018-Jul-08 18:00N 25°46' W 080°10'0 0.0
2018-Jul-08 17:23N 25°46' W 080°10'0 0.0
2018-Jul-08 16:59N 25°46' W 080°10'0 0.0
2018-Jul-08 16:29N 25°46' W 080°10'0 0.0
2018-Jul-08 15:59N 25°46' W 080°10'0 0.0
2018-Jul-08 15:29N 25°46' W 080°10'0 0.0
2018-Jul-08 14:58N 25°46' W 080°10'0 0.0
2018-Jul-08 14:22N 25°46' W 080°10'0 0.0
2018-Jul-08 13:58N 25°46' W 080°10'0 0.0
2018-Jul-08 13:28N 25°46' W 080°10'0 0.0
2018-Jul-08 12:57N 25°46' W 080°10'0 0.0
2018-Jul-08 12:30N 25°46' W 080°10'0 0.0
2018-Jul-08 12:01N 25°46' W 080°10'1 1.6
2018-Jul-08 11:30N 25°46' W 080°09'4 8.9
2018-Jul-08 11:01N 25°46' W 080°04'3 6.3
2018-Jul-08 10:30N 25°45' W 080°01'815.0
2018-Jul-08 10:00N 25°38' W 079°58'815.9
2018-Jul-08 09:30N 25°30' W 079°56'  

Dump ship's entire track history